createdAt,value
2019-03-09T00:02:27.248Z,6.93
2019-03-09T00:04:56.848Z,6.88
2019-03-09T00:07:26.498Z,6.86
2019-03-09T00:09:55.953Z,6.88
2019-03-09T00:12:25.495Z,6.97
2019-03-09T00:14:54.985Z,7.09
2019-03-09T00:17:24.564Z,7.09
2019-03-09T00:19:54.311Z,7.27
2019-03-09T00:22:23.875Z,7.19
2019-03-09T00:25:30.338Z,7.17
2019-03-09T00:28:10.974Z,7.07
2019-03-09T00:30:48.650Z,6.98
2019-03-09T00:33:18.065Z,7.01
2019-03-09T00:35:47.801Z,6.94
2019-03-09T00:38:17.492Z,7.01
2019-03-09T00:40:46.918Z,6.99
2019-03-09T00:43:16.542Z,6.82
2019-03-09T00:45:46.094Z,6.75
2019-03-09T00:48:15.869Z,6.76
2019-03-09T00:50:46.312Z,6.74
2019-03-09T00:53:15.782Z,6.71
2019-03-09T00:55:45.192Z,6.72
2019-03-09T00:58:14.618Z,6.77
2019-03-09T01:00:44.320Z,6.79
2019-03-09T01:03:13.871Z,6.93
2019-03-09T01:05:46.030Z,6.86
2019-03-09T01:08:15.733Z,6.86
2019-03-09T01:10:49.012Z,6.84
2019-03-09T01:13:18.782Z,6.91
2019-03-09T01:15:48.569Z,6.79
2019-03-09T01:18:18.983Z,6.75
2019-03-09T01:20:48.521Z,6.82
2019-03-09T01:23:18.168Z,6.86
2019-03-09T01:25:47.759Z,6.84
2019-03-09T01:28:17.289Z,6.73
2019-03-09T01:30:46.868Z,6.69
2019-03-09T01:33:16.628Z,6.76
2019-03-09T01:35:46.132Z,6.71
2019-03-09T01:38:16.005Z,6.81
2019-03-09T01:40:45.618Z,6.80
2019-03-09T01:43:15.203Z,6.79
2019-03-09T01:45:44.650Z,6.75
2019-03-09T01:48:14.220Z,6.77
2019-03-09T01:50:43.731Z,6.84
2019-03-09T01:53:13.271Z,6.92
2019-03-09T01:55:42.792Z,6.87
2019-03-09T01:58:12.372Z,6.95
2019-03-09T02:00:41.831Z,7.00
2019-03-09T02:03:11.291Z,7.02
2019-03-09T02:05:40.722Z,6.88
2019-03-09T02:08:10.245Z,6.88
2019-03-09T02:10:39.599Z,6.92
2019-03-09T02:13:09.234Z,6.91
2019-03-09T02:15:38.781Z,6.83
2019-03-09T02:18:08.322Z,6.87
2019-03-09T02:20:37.767Z,6.80
2019-03-09T02:23:07.332Z,6.77
2019-03-09T02:25:36.838Z,6.80
2019-03-09T02:28:06.306Z,6.87
2019-03-09T02:30:35.840Z,6.93
2019-03-09T02:33:05.645Z,6.89
2019-03-09T02:35:35.079Z,6.88
2019-03-09T02:38:26.545Z,6.88
2019-03-09T02:40:58.027Z,6.97
2019-03-09T02:43:27.433Z,7.03
2019-03-09T02:45:56.952Z,7.01
2019-03-09T02:48:26.597Z,7.00
2019-03-09T02:50:56.436Z,7.04
2019-03-09T02:53:27.419Z,7.02
2019-03-09T02:55:57.153Z,7.04
2019-03-09T02:58:26.575Z,7.12
2019-03-09T03:01:10.219Z,7.31
2019-03-09T03:03:39.679Z,7.24
2019-03-09T03:06:09.160Z,7.31
2019-03-09T03:08:38.545Z,7.26
2019-03-09T03:11:08.017Z,7.28
2019-03-09T03:13:37.454Z,7.37
2019-03-09T03:16:06.775Z,7.30
2019-03-09T03:18:36.264Z,7.31
2019-03-09T03:21:05.783Z,7.49
2019-03-09T03:23:35.351Z,7.45
2019-03-09T03:26:04.978Z,7.44
2019-03-09T03:28:34.472Z,7.41
2019-03-09T03:31:04.176Z,7.52
2019-03-09T03:33:33.844Z,7.52
2019-03-09T03:36:03.235Z,7.55
2019-03-09T03:38:32.774Z,7.62
2019-03-09T03:41:02.374Z,7.55
2019-03-09T03:43:31.905Z,7.68
2019-03-09T03:46:01.482Z,7.62
2019-03-09T03:48:30.969Z,7.73
2019-03-09T03:51:00.355Z,7.68
2019-03-09T03:53:29.852Z,7.67
2019-03-09T03:55:59.303Z,7.86
2019-03-09T03:58:28.770Z,7.75
2019-03-09T04:00:58.314Z,7.92
2019-03-09T04:03:27.772Z,7.96
2019-03-09T04:05:57.201Z,7.93
2019-03-09T04:08:27.070Z,7.94
2019-03-09T04:10:56.458Z,7.92
2019-03-09T04:13:25.783Z,7.87
2019-03-09T04:15:55.345Z,8.06
2019-03-09T04:18:24.710Z,8.17
2019-03-09T04:20:54.136Z,8.18
2019-03-09T04:23:23.639Z,8.07
2019-03-09T04:25:53.137Z,8.22
2019-03-09T04:28:22.679Z,8.22
2019-03-09T04:30:52.242Z,8.31
2019-03-09T04:33:21.595Z,8.13
2019-03-09T04:35:51.070Z,8.20
2019-03-09T04:38:20.549Z,8.24
2019-03-09T04:40:50.035Z,8.23
2019-03-09T04:43:19.592Z,8.34
2019-03-09T04:45:48.967Z,8.40
2019-03-09T04:48:18.419Z,8.37
2019-03-09T04:50:47.783Z,8.41
2019-03-09T04:53:17.172Z,8.32
2019-03-09T04:55:46.581Z,8.40
2019-03-09T04:58:15.987Z,8.41
2019-03-09T05:00:45.729Z,8.36
2019-03-09T05:03:15.219Z,8.35
2019-03-09T05:05:44.707Z,8.30
2019-03-09T05:08:38.639Z,8.44
2019-03-09T05:11:14.994Z,8.48
2019-03-09T05:14:14.486Z,8.46
2019-03-09T05:16:43.928Z,8.57
2019-03-09T05:19:13.456Z,8.54
2019-03-09T05:21:42.988Z,8.41
2019-03-09T05:24:12.548Z,8.45
2019-03-09T05:26:42.013Z,8.42
2019-03-09T05:29:11.407Z,8.41
2019-03-09T05:31:40.921Z,8.39
2019-03-09T05:34:10.392Z,8.27
2019-03-09T05:36:39.902Z,8.35
2019-03-09T05:39:09.362Z,8.28
2019-03-09T05:41:38.926Z,8.22
2019-03-09T05:44:08.402Z,8.33
2019-03-09T05:46:37.824Z,8.30
2019-03-09T05:49:07.171Z,8.24
2019-03-09T05:51:36.804Z,8.23
2019-03-09T05:54:06.161Z,8.19
2019-03-09T05:56:35.574Z,8.16
2019-03-09T05:59:05.121Z,8.02
2019-03-09T06:01:34.524Z,8.04
2019-03-09T06:04:03.863Z,8.03
2019-03-09T06:06:33.440Z,8.02
2019-03-09T06:09:02.953Z,8.27
2019-03-09T06:11:33.279Z,8.26
2019-03-09T06:14:02.794Z,8.47
2019-03-09T06:16:32.349Z,8.52
2019-03-09T06:19:01.919Z,8.62
2019-03-09T06:21:31.382Z,8.56
2019-03-09T06:24:00.978Z,8.53
2019-03-09T06:26:30.443Z,8.56
2019-03-09T06:28:59.999Z,8.66
2019-03-09T06:31:29.554Z,8.68
2019-03-09T06:33:59.042Z,8.65
2019-03-09T06:37:05.312Z,8.59
2019-03-09T06:39:46.492Z,8.52
2019-03-09T06:42:51.583Z,8.60
2019-03-09T06:45:21.368Z,8.61
2019-03-09T06:47:50.918Z,8.68
2019-03-09T06:50:21.380Z,8.62
2019-03-09T06:52:50.847Z,8.63
2019-03-09T06:55:20.241Z,8.68
2019-03-09T06:57:49.756Z,8.60
2019-03-09T07:00:41.886Z,8.59
2019-03-09T07:03:11.936Z,8.55
2019-03-09T07:05:41.431Z,8.51
2019-03-09T07:08:11.047Z,8.48
2019-03-09T07:10:40.408Z,8.61
2019-03-09T07:13:09.907Z,8.52
2019-03-09T07:15:41.581Z,8.51
2019-03-09T07:18:21.845Z,8.50
2019-03-09T07:20:51.326Z,8.52
2019-03-09T07:23:20.877Z,8.56
2019-03-09T07:25:50.316Z,8.77
2019-03-09T07:28:19.727Z,8.84
2019-03-09T07:30:49.145Z,9.00
2019-03-09T07:33:18.693Z,9.12
2019-03-09T07:35:48.260Z,9.09
2019-03-09T07:38:17.935Z,9.17
2019-03-09T07:40:47.580Z,9.18
2019-03-09T07:43:17.090Z,9.39
2019-03-09T07:45:46.610Z,9.52
2019-03-09T07:48:16.084Z,9.68
2019-03-09T07:50:45.485Z,9.79
2019-03-09T07:53:14.976Z,9.81
2019-03-09T07:55:44.490Z,9.81
2019-03-09T07:58:14.113Z,9.84
2019-03-09T08:00:43.523Z,9.95
2019-03-09T08:03:13.505Z,10.10
2019-03-09T08:05:43.066Z,10.02
2019-03-09T08:08:12.636Z,9.92
2019-03-09T08:10:42.229Z,10.08
2019-03-09T08:13:11.816Z,9.94
2019-03-09T08:15:41.342Z,10.14
2019-03-09T08:18:10.829Z,10.19
2019-03-09T08:20:40.371Z,10.34
2019-03-09T08:23:09.789Z,10.52
2019-03-09T08:25:39.216Z,10.71
2019-03-09T08:28:08.761Z,10.84
2019-03-09T08:30:38.310Z,10.77
2019-03-09T08:33:07.883Z,10.87
2019-03-09T08:35:37.434Z,10.78
2019-03-09T08:38:06.980Z,10.61
2019-03-09T08:40:36.546Z,10.81
2019-03-09T08:43:06.175Z,10.88
2019-03-09T08:45:35.742Z,10.81
2019-03-09T08:48:05.272Z,10.79
2019-03-09T08:50:34.899Z,10.82
2019-03-09T08:53:04.365Z,10.79
2019-03-09T08:55:33.810Z,10.68
2019-03-09T08:58:03.338Z,10.73
2019-03-09T09:00:33.535Z,10.74
2019-03-09T09:03:03.199Z,10.79
2019-03-09T09:05:32.628Z,10.81
2019-03-09T09:08:03.816Z,11.06
2019-03-09T09:10:33.577Z,11.22
2019-03-09T09:13:03.065Z,11.29
2019-03-09T09:15:32.508Z,11.23
2019-03-09T09:18:01.924Z,11.32
2019-03-09T09:20:31.475Z,11.32
2019-03-09T09:23:00.849Z,11.33
2019-03-09T09:25:30.449Z,11.23
2019-03-09T09:28:00.021Z,11.37
2019-03-09T09:30:29.579Z,11.30
2019-03-09T09:32:59.147Z,11.50
2019-03-09T09:35:32.747Z,11.48
2019-03-09T09:38:02.431Z,11.59
2019-03-09T09:40:31.907Z,11.63
2019-03-09T09:43:01.542Z,11.70
2019-03-09T09:45:30.965Z,11.52
2019-03-09T09:48:00.482Z,11.57
2019-03-09T09:50:30.041Z,11.71
2019-03-09T09:52:59.655Z,11.66
2019-03-09T09:55:29.876Z,11.60
2019-03-09T09:58:03.106Z,11.68
2019-03-09T10:00:32.712Z,11.53
2019-03-09T10:03:02.123Z,11.50
2019-03-09T10:05:31.746Z,11.37
2019-03-09T10:08:01.246Z,11.34
2019-03-09T10:10:30.733Z,11.37
2019-03-09T10:13:00.288Z,11.45
2019-03-09T10:15:30.029Z,11.52
2019-03-09T10:17:59.585Z,11.66
2019-03-09T10:20:29.120Z,11.77
2019-03-09T10:23:04.207Z,11.87
2019-03-09T10:25:29.798Z,11.78
2019-03-09T10:27:59.393Z,11.89
2019-03-09T10:30:28.998Z,11.89
2019-03-09T10:32:58.620Z,11.90
2019-03-09T10:35:28.161Z,11.77
2019-03-09T10:37:57.576Z,11.97
2019-03-09T10:40:27.172Z,12.20
2019-03-09T10:42:56.671Z,12.08
2019-03-09T10:45:26.133Z,12.08
2019-03-09T10:47:55.641Z,12.18
2019-03-09T10:50:26.091Z,12.38
2019-03-09T10:52:55.661Z,12.39
2019-03-09T10:55:25.075Z,12.50
2019-03-09T10:57:54.786Z,12.45
2019-03-09T11:00:29.635Z,12.23
2019-03-09T11:02:59.181Z,12.45
2019-03-09T11:05:28.685Z,12.57
2019-03-09T11:07:58.160Z,12.68
2019-03-09T11:10:27.700Z,12.60
2019-03-09T11:12:57.379Z,12.39
2019-03-09T11:15:26.792Z,12.39
2019-03-09T11:17:56.402Z,12.55
2019-03-09T11:20:25.893Z,12.68
2019-03-09T11:22:55.390Z,12.86
2019-03-09T11:25:24.925Z,12.98
2019-03-09T11:27:54.521Z,12.86
2019-03-09T11:30:25.217Z,13.10
2019-03-09T11:32:54.805Z,13.19
2019-03-09T11:35:24.568Z,13.22
2019-03-09T11:37:54.086Z,13.16
2019-03-09T11:40:23.652Z,13.44
2019-03-09T11:42:53.199Z,13.44
2019-03-09T11:45:22.774Z,13.43
2019-03-09T11:47:52.389Z,13.51
2019-03-09T11:50:21.981Z,13.16
2019-03-09T11:52:51.667Z,12.78
2019-03-09T11:55:21.197Z,12.66
2019-03-09T11:57:52.696Z,12.71
2019-03-09T12:00:26.025Z,12.68
2019-03-09T12:02:55.597Z,12.60
2019-03-09T12:05:25.196Z,12.54
2019-03-09T12:07:54.755Z,12.55
2019-03-09T12:10:24.260Z,12.62
2019-03-09T12:12:54.028Z,12.74
2019-03-09T12:15:23.779Z,12.85
2019-03-09T12:17:53.354Z,13.17
2019-03-09T12:20:24.959Z,13.45
2019-03-09T12:23:01.012Z,13.51
2019-03-09T12:25:26.182Z,13.43
2019-03-09T12:27:55.752Z,13.12
2019-03-09T12:30:25.337Z,12.79
2019-03-09T12:32:54.889Z,12.66
2019-03-09T12:35:24.402Z,13.03
2019-03-09T12:37:53.942Z,13.35
2019-03-09T12:40:23.358Z,13.62
2019-03-09T12:42:52.959Z,13.38
2019-03-09T12:45:22.609Z,13.40
2019-03-09T12:47:52.363Z,13.42
2019-03-09T12:50:22.248Z,13.35
2019-03-09T12:52:51.887Z,13.30
2019-03-09T12:55:21.433Z,13.38
2019-03-09T12:57:51.077Z,13.78
2019-03-09T13:00:20.857Z,14.08
2019-03-09T13:02:50.359Z,13.67
2019-03-09T13:05:20.068Z,13.37
2019-03-09T13:07:49.661Z,13.21
2019-03-09T13:10:19.276Z,13.05
2019-03-09T13:12:49.035Z,12.90
2019-03-09T13:15:18.834Z,12.97
2019-03-09T13:17:48.498Z,13.06
2019-03-09T13:20:18.240Z,13.05
2019-03-09T13:22:47.878Z,12.86
2019-03-09T13:25:17.365Z,12.68
2019-03-09T13:27:46.881Z,12.51
2019-03-09T13:30:18.088Z,12.46
2019-03-09T13:32:47.772Z,12.45
2019-03-09T13:35:17.595Z,11.89
2019-03-09T13:37:47.272Z,11.10
2019-03-09T13:40:17.227Z,10.52
2019-03-09T13:42:46.983Z,10.39
2019-03-09T13:45:16.774Z,10.21
2019-03-09T13:47:46.709Z,9.79
2019-03-09T13:50:16.167Z,9.45
2019-03-09T13:52:45.815Z,9.29
2019-03-09T13:55:15.623Z,9.32
2019-03-09T13:57:45.430Z,9.21
2019-03-09T14:00:15.795Z,9.43
2019-03-09T14:02:45.599Z,9.95
2019-03-09T14:05:15.455Z,10.49
2019-03-09T14:07:45.334Z,11.66
2019-03-09T14:10:16.062Z,12.59
2019-03-09T14:12:45.802Z,13.22
2019-03-09T14:15:15.733Z,14.07
2019-03-09T14:17:45.386Z,14.31
2019-03-09T14:20:15.399Z,14.78
2019-03-09T14:22:45.268Z,13.72
2019-03-09T14:25:15.206Z,14.06
2019-03-09T14:27:45.210Z,14.40
2019-03-09T14:30:15.578Z,14.08
2019-03-09T14:32:45.446Z,13.59
2019-03-09T14:35:15.541Z,12.26
2019-03-09T14:37:45.435Z,11.47
2019-03-09T14:40:15.578Z,11.20
2019-03-09T14:42:45.347Z,10.99
2019-03-09T14:45:16.492Z,10.72
2019-03-09T14:47:46.257Z,10.43
2019-03-09T14:50:16.338Z,10.08
2019-03-09T14:52:46.110Z,10.13
2019-03-09T14:55:15.980Z,10.20
2019-03-09T14:57:45.833Z,10.11
2019-03-09T15:00:18.057Z,10.13
2019-03-09T15:02:47.870Z,9.83
2019-03-09T15:05:17.765Z,9.43
2019-03-09T15:07:47.631Z,8.68
2019-03-09T15:10:17.701Z,7.92
2019-03-09T15:12:47.423Z,7.73
2019-03-09T15:15:17.390Z,7.69
2019-03-09T15:17:47.122Z,7.59
2019-03-09T15:20:17.443Z,7.68
2019-03-09T15:22:47.382Z,7.74
2019-03-09T15:25:17.213Z,7.79
2019-03-09T15:27:46.967Z,7.81
2019-03-09T15:30:17.030Z,7.58
2019-03-09T15:32:47.056Z,7.37
2019-03-09T15:35:17.489Z,6.94
2019-03-09T15:37:47.268Z,6.57
2019-03-09T15:40:17.633Z,6.47
2019-03-09T15:42:47.628Z,6.54
2019-03-09T15:45:17.981Z,6.54
2019-03-09T15:47:48.049Z,6.56
2019-03-09T15:50:18.055Z,6.53
2019-03-09T15:52:47.980Z,6.58
2019-03-09T15:55:18.144Z,6.78
2019-03-09T15:57:48.205Z,7.03
2019-03-09T16:00:19.040Z,7.05
2019-03-09T16:02:49.117Z,7.04
2019-03-09T16:05:19.200Z,6.98
2019-03-09T16:07:49.090Z,7.11
2019-03-09T16:10:19.059Z,7.28
2019-03-09T16:12:48.920Z,8.35
2019-03-09T16:15:18.918Z,8.83
2019-03-09T16:17:48.843Z,9.37
2019-03-09T16:20:18.713Z,9.56
2019-03-09T16:22:49.553Z,9.22
2019-03-09T16:25:19.632Z,8.68
2019-03-09T16:27:49.496Z,8.49
2019-03-09T16:30:19.732Z,8.53
2019-03-09T16:32:49.758Z,9.14
2019-03-09T16:35:19.846Z,9.04
2019-03-09T16:37:49.800Z,8.89
2019-03-09T16:40:19.694Z,8.73
2019-03-09T16:42:49.812Z,8.55
2019-03-09T16:45:19.882Z,8.39
2019-03-09T16:47:50.276Z,8.35
2019-03-09T16:50:20.415Z,8.27
2019-03-09T16:52:50.304Z,8.21
2019-03-09T16:55:20.171Z,8.20
2019-03-09T16:57:50.130Z,8.16
2019-03-09T17:00:20.479Z,8.27
2019-03-09T17:02:50.591Z,8.27
2019-03-09T17:05:20.482Z,8.25
2019-03-09T17:07:50.724Z,8.30
2019-03-09T17:10:20.720Z,8.32
2019-03-09T17:12:50.554Z,8.28
2019-03-09T17:15:21.342Z,8.30
2019-03-09T17:17:51.377Z,8.30
2019-03-09T17:20:21.427Z,8.34
2019-03-09T17:22:51.405Z,8.23
2019-03-09T17:25:21.510Z,8.25
2019-03-09T17:27:51.571Z,8.22
2019-03-09T17:30:21.583Z,8.32
2019-03-09T17:32:51.400Z,8.28
2019-03-09T17:35:21.362Z,8.21
2019-03-09T17:37:51.220Z,8.22
2019-03-09T17:40:25.089Z,8.19
2019-03-09T17:42:56.122Z,8.24
2019-03-09T17:45:26.201Z,8.29
2019-03-09T17:47:56.332Z,8.23
2019-03-09T17:50:26.134Z,8.21
2019-03-09T17:52:56.054Z,8.23
2019-03-09T17:55:25.951Z,8.21
2019-03-09T17:57:55.827Z,8.17
2019-03-09T18:00:26.269Z,8.04
2019-03-09T18:02:56.203Z,8.00
2019-03-09T18:05:26.308Z,7.91
2019-03-09T18:07:56.140Z,7.74
2019-03-09T18:10:39.512Z,7.66
2019-03-09T18:13:10.085Z,7.48
2019-03-09T18:15:40.102Z,7.49
2019-03-09T18:18:10.110Z,7.47
2019-03-09T18:20:40.521Z,7.44
2019-03-09T18:23:10.383Z,7.34
2019-03-09T18:25:40.487Z,7.28
2019-03-09T18:28:10.442Z,7.33
2019-03-09T18:30:41.279Z,7.31
2019-03-09T18:33:11.233Z,7.27
2019-03-09T18:35:41.954Z,7.23
2019-03-09T18:38:12.007Z,7.10
2019-03-09T18:40:41.918Z,6.96
2019-03-09T18:43:11.980Z,6.89
2019-03-09T18:45:42.868Z,6.84
2019-03-09T18:48:12.742Z,6.89
2019-03-09T18:50:43.711Z,6.75
2019-03-09T18:53:15.976Z,6.71
2019-03-09T18:55:46.739Z,6.63
2019-03-09T18:58:18.171Z,6.59
2019-03-09T19:00:48.206Z,6.57
2019-03-09T19:03:20.974Z,6.52
2019-03-09T19:05:50.794Z,6.60
2019-03-09T19:08:20.754Z,6.46
2019-03-09T19:10:50.799Z,6.61
2019-03-09T19:13:20.890Z,6.73
2019-03-09T19:15:50.770Z,6.61
2019-03-09T19:18:20.713Z,6.58
2019-03-09T19:20:50.751Z,6.64
2019-03-09T19:23:20.745Z,6.47
2019-03-09T19:25:50.593Z,6.51
2019-03-09T19:28:20.505Z,6.56
2019-03-09T19:30:50.321Z,6.64
2019-03-09T19:33:20.147Z,6.57
2019-03-09T19:35:50.308Z,6.71
2019-03-09T19:38:22.160Z,6.56
2019-03-09T19:40:53.008Z,6.74
2019-03-09T19:43:22.844Z,6.68
2019-03-09T19:45:52.651Z,6.56
2019-03-09T19:48:22.606Z,6.59
2019-03-09T19:50:52.316Z,6.55
2019-03-09T19:53:22.742Z,6.49
2019-03-09T19:55:52.719Z,6.57
2019-03-09T19:58:22.646Z,6.65
2019-03-09T20:00:52.990Z,6.62
2019-03-09T20:03:40.491Z,6.60
2019-03-09T20:06:10.722Z,6.54
2019-03-09T20:08:40.911Z,6.55
2019-03-09T20:11:11.238Z,6.67
2019-03-09T20:13:42.032Z,6.61
2019-03-09T20:16:12.859Z,6.66
2019-03-09T20:18:42.748Z,6.57
2019-03-09T20:21:12.897Z,6.65
2019-03-09T20:23:42.765Z,6.69
2019-03-09T20:26:12.876Z,6.68
2019-03-09T20:28:42.726Z,6.50
2019-03-09T20:31:12.751Z,6.40
2019-03-09T20:33:42.618Z,6.44
2019-03-09T20:36:22.369Z,6.33
2019-03-09T20:38:52.253Z,6.39
2019-03-09T20:41:36.195Z,6.32
2019-03-09T20:44:25.946Z,6.50
2019-03-09T20:46:56.027Z,6.63
2019-03-09T20:49:26.048Z,6.66
2019-03-09T20:51:55.968Z,6.72
2019-03-09T20:54:26.292Z,6.71
2019-03-09T20:56:56.291Z,6.85
2019-03-09T20:59:26.125Z,6.87
2019-03-09T21:01:56.362Z,6.94
2019-03-09T21:04:27.410Z,6.95
2019-03-09T21:06:57.240Z,7.18
2019-03-09T21:09:37.422Z,7.29
2019-03-09T21:12:11.164Z,7.35
2019-03-09T21:14:41.087Z,7.24
2019-03-09T21:17:11.201Z,7.46
2019-03-09T21:19:41.000Z,7.14
2019-03-09T21:22:10.942Z,6.95
2019-03-09T21:24:41.158Z,6.98
2019-03-09T21:27:10.965Z,7.03
2019-03-09T21:29:40.894Z,6.88
2019-03-09T21:32:10.772Z,6.96
2019-03-09T21:34:40.447Z,6.85
2019-03-09T21:37:10.190Z,6.77
2019-03-09T21:39:40.101Z,6.80
2019-03-09T21:42:09.964Z,6.91
2019-03-09T21:44:39.746Z,6.91
2019-03-09T21:47:09.462Z,7.04
2019-03-09T21:49:39.272Z,7.14
2019-03-09T21:52:09.093Z,7.12
2019-03-09T21:54:38.923Z,7.35
2019-03-09T21:57:08.736Z,7.32
2019-03-09T21:59:38.415Z,7.26
2019-03-09T22:02:08.908Z,7.37
2019-03-09T22:04:38.740Z,7.42
2019-03-09T22:07:08.418Z,7.34
2019-03-09T22:09:39.603Z,7.48
2019-03-09T22:12:09.276Z,7.45
2019-03-09T22:14:40.140Z,7.59
2019-03-09T22:17:09.778Z,7.53
2019-03-09T22:19:39.438Z,7.60
2019-03-09T22:22:10.443Z,7.77
2019-03-09T22:25:02.554Z,7.74
2019-03-09T22:27:33.300Z,7.91
2019-03-09T22:30:06.832Z,7.88
2019-03-09T22:32:38.679Z,7.96
2019-03-09T22:35:11.144Z,7.91
2019-03-09T22:37:44.623Z,7.90
2019-03-09T22:40:14.521Z,8.00
2019-03-09T22:42:45.198Z,7.88
2019-03-09T22:45:16.329Z,7.80
2019-03-09T22:47:45.912Z,7.88
2019-03-09T22:50:16.108Z,7.86
2019-03-09T22:52:45.720Z,7.81
2019-03-09T22:55:15.298Z,7.81
2019-03-09T22:57:45.038Z,7.92
2019-03-09T23:00:16.820Z,7.85
2019-03-09T23:02:52.559Z,7.90
2019-03-09T23:05:22.028Z,8.06
2019-03-09T23:08:10.573Z,7.94
2019-03-09T23:10:42.263Z,7.96
2019-03-09T23:13:14.500Z,7.90
2019-03-09T23:15:52.381Z,7.89
2019-03-09T23:19:10.747Z,7.84
2019-03-09T23:21:40.819Z,7.82
2019-03-09T23:24:22.112Z,7.81
2019-03-09T23:26:54.823Z,7.66
2019-03-09T23:29:30.981Z,7.69
2019-03-09T23:32:01.455Z,7.76
2019-03-09T23:34:32.853Z,7.77
2019-03-09T23:37:03.556Z,7.66
2019-03-09T23:39:34.321Z,7.64
2019-03-09T23:42:06.753Z,7.67
2019-03-09T23:44:36.284Z,7.50
2019-03-09T23:47:14.166Z,7.52
2019-03-09T23:49:43.136Z,7.50
2019-03-09T23:52:13.509Z,7.41
2019-03-09T23:54:43.123Z,7.46
2019-03-09T23:57:13.558Z,7.52
2019-03-09T23:59:45.362Z,7.50
